sensor_id;sensor_type;location;lat;lon;timestamp;P1;durP1;ratioP1;P2;durP2;ratioP2
69253;SDS011;56364;41.816;12.448;2023-07-13T00:00:33;6.10;;;2.78;;
69253;SDS011;56364;41.816;12.448;2023-07-13T00:02:59;9.95;;;2.80;;
69253;SDS011;56364;41.816;12.448;2023-07-13T00:05:25;11.73;;;3.33;;
69253;SDS011;56364;41.816;12.448;2023-07-13T00:07:52;5.43;;;2.42;;
69253;SDS011;56364;41.816;12.448;2023-07-13T00:10:19;5.70;;;2.80;;
69253;SDS011;56364;41.816;12.448;2023-07-13T00:28:39;4.00;;;2.20;;
69253;SDS011;56364;41.816;12.448;2023-07-13T00:31:07;7.75;;;2.47;;
69253;SDS011;56364;41.816;12.448;2023-07-13T00:33:33;8.40;;;2.45;;
69253;SDS011;56364;41.816;12.448;2023-07-13T00:35:59;6.90;;;3.00;;
69253;SDS011;56364;41.816;12.448;2023-07-13T00:38:25;8.02;;;2.75;;
69253;SDS011;56364;41.816;12.448;2023-07-13T00:40:51;6.38;;;2.30;;
69253;SDS011;56364;41.816;12.448;2023-07-13T00:43:19;10.55;;;2.63;;
69253;SDS011;56364;41.816;12.448;2023-07-13T00:48:13;8.82;;;2.65;;
69253;SDS011;56364;41.816;12.448;2023-07-13T00:50:40;8.13;;;2.85;;
69253;SDS011;56364;41.816;12.448;2023-07-13T00:53:06;10.65;;;2.72;;
69253;SDS011;56364;41.816;12.448;2023-07-13T00:55:33;9.18;;;2.20;;
69253;SDS011;56364;41.816;12.448;2023-07-13T00:57:59;12.50;;;2.85;;
69253;SDS011;56364;41.816;12.448;2023-07-13T01:00:25;8.13;;;2.38;;
69253;SDS011;56364;41.816;12.448;2023-07-13T01:02:51;5.97;;;2.40;;
69253;SDS011;56364;41.816;12.448;2023-07-13T01:05:18;5.10;;;2.30;;
69253;SDS011;56364;41.816;12.448;2023-07-13T01:07:45;4.20;;;2.08;;
69253;SDS011;56364;41.816;12.448;2023-07-13T01:10:11;8.38;;;2.30;;
69253;SDS011;56364;41.816;12.448;2023-07-13T01:12:38;4.63;;;2.05;;
69253;SDS011;56364;41.816;12.448;2023-07-13T01:15:04;5.35;;;2.25;;
69253;SDS011;56364;41.816;12.448;2023-07-13T01:17:32;8.05;;;2.50;;
69253;SDS011;56364;41.816;12.448;2023-07-13T01:19:58;5.55;;;2.22;;
69253;SDS011;56364;41.816;12.448;2023-07-13T01:22:25;6.13;;;2.28;;
69253;SDS011;56364;41.816;12.448;2023-07-13T01:24:52;4.88;;;2.50;;
69253;SDS011;56364;41.816;12.448;2023-07-13T01:27:23;5.88;;;2.33;;
69253;SDS011;56364;41.816;12.448;2023-07-13T01:29:50;6.20;;;2.20;;
69253;SDS011;56364;41.816;12.448;2023-07-13T01:32:18;5.28;;;2.35;;
69253;SDS011;56364;41.816;12.448;2023-07-13T01:37:14;7.95;;;2.35;;
69253;SDS011;56364;41.816;12.448;2023-07-13T01:39:40;4.70;;;2.20;;
69253;SDS011;56364;41.816;12.448;2023-07-13T01:42:07;4.22;;;2.25;;
69253;SDS011;56364;41.816;12.448;2023-07-13T01:44:33;8.57;;;2.60;;
69253;SDS011;56364;41.816;12.448;2023-07-13T01:46:59;9.27;;;2.55;;
69253;SDS011;56364;41.816;12.448;2023-07-13T01:49:25;6.82;;;2.13;;
69253;SDS011;56364;41.816;12.448;2023-07-13T01:51:51;8.38;;;2.50;;
69253;SDS011;56364;41.816;12.448;2023-07-13T01:54:17;4.97;;;2.10;;
69253;SDS011;56364;41.816;12.448;2023-07-13T01:56:43;8.40;;;2.05;;
69253;SDS011;56364;41.816;12.448;2023-07-13T01:59:09;6.05;;;2.45;;
69253;SDS011;56364;41.816;12.448;2023-07-13T02:01:35;11.40;;;2.45;;
69253;SDS011;56364;41.816;12.448;2023-07-13T02:04:02;10.00;;;2.50;;
69253;SDS011;56364;41.816;12.448;2023-07-13T02:06:28;6.28;;;2.70;;
69253;SDS011;56364;41.816;12.448;2023-07-13T02:08:54;6.95;;;2.45;;
69253;SDS011;56364;41.816;12.448;2023-07-13T02:11:20;4.88;;;2.13;;
69253;SDS011;56364;41.816;12.448;2023-07-13T02:13:46;4.63;;;2.03;;
69253;SDS011;56364;41.816;12.448;2023-07-13T02:16:12;6.25;;;2.88;;
69253;SDS011;56364;41.816;12.448;2023-07-13T02:18:38;6.35;;;2.40;;
69253;SDS011;56364;41.816;12.448;2023-07-13T02:21:04;6.50;;;2.20;;
69253;SDS011;56364;41.816;12.448;2023-07-13T02:23:30;4.07;;;2.50;;
69253;SDS011;56364;41.816;12.448;2023-07-13T02:25:57;7.03;;;2.40;;
69253;SDS011;56364;41.816;12.448;2023-07-13T02:28:23;8.38;;;2.03;;
69253;SDS011;56364;41.816;12.448;2023-07-13T02:30:49;8.00;;;2.45;;
69253;SDS011;56364;41.816;12.448;2023-07-13T02:33:15;7.38;;;2.45;;
69253;SDS011;56364;41.816;12.448;2023-07-13T02:35:41;6.28;;;2.60;;
69253;SDS011;56364;41.816;12.448;2023-07-13T02:38:07;6.80;;;2.28;;
69253;SDS011;56364;41.816;12.448;2023-07-13T02:40:33;4.50;;;2.33;;
69253;SDS011;56364;41.816;12.448;2023-07-13T02:43:00;8.23;;;2.60;;
69253;SDS011;56364;41.816;12.448;2023-07-13T02:45:27;4.70;;;2.30;;
69253;SDS011;56364;41.816;12.448;2023-07-13T02:47:53;7.75;;;2.10;;
69253;SDS011;56364;41.816;12.448;2023-07-13T02:50:19;5.25;;;2.30;;
69253;SDS011;56364;41.816;12.448;2023-07-13T02:52:46;7.07;;;2.40;;
69253;SDS011;56364;41.816;12.448;2023-07-13T02:55:12;6.65;;;2.50;;
69253;SDS011;56364;41.816;12.448;2023-07-13T02:57:38;9.20;;;2.45;;
69253;SDS011;56364;41.816;12.448;2023-07-13T03:00:04;8.88;;;2.33;;
69253;SDS011;56364;41.816;12.448;2023-07-13T03:02:31;8.65;;;2.40;;
69253;SDS011;56364;41.816;12.448;2023-07-13T03:04:57;4.07;;;2.13;;
69253;SDS011;56364;41.816;12.448;2023-07-13T03:07:23;9.38;;;2.80;;
69253;SDS011;56364;41.816;12.448;2023-07-13T03:09:53;6.22;;;2.33;;
69253;SDS011;56364;41.816;12.448;2023-07-13T03:12:20;6.63;;;2.88;;
69253;SDS011;56364;41.816;12.448;2023-07-13T03:14:46;9.10;;;2.05;;
69253;SDS011;56364;41.816;12.448;2023-07-13T03:17:12;8.60;;;2.42;;
69253;SDS011;56364;41.816;12.448;2023-07-13T03:19:38;5.70;;;2.42;;
69253;SDS011;56364;41.816;12.448;2023-07-13T03:22:04;10.77;;;2.30;;
69253;SDS011;56364;41.816;12.448;2023-07-13T03:24:32;3.90;;;2.47;;
69253;SDS011;56364;41.816;12.448;2023-07-13T03:26:58;4.97;;;2.20;;
69253;SDS011;56364;41.816;12.448;2023-07-13T03:29:24;5.13;;;2.33;;
69253;SDS011;56364;41.816;12.448;2023-07-13T03:31:50;5.10;;;2.40;;
69253;SDS011;56364;41.816;12.448;2023-07-13T03:34:16;8.48;;;2.60;;
69253;SDS011;56364;41.816;12.448;2023-07-13T03:36:53;6.40;;;2.20;;
69253;SDS011;56364;41.816;12.448;2023-07-13T03:39:20;5.50;;;2.45;;
69253;SDS011;56364;41.816;12.448;2023-07-13T03:41:52;8.23;;;2.70;;
69253;SDS011;56364;41.816;12.448;2023-07-13T03:44:18;4.93;;;2.47;;
69253;SDS011;56364;41.816;12.448;2023-07-13T03:46:44;6.57;;;2.40;;
69253;SDS011;56364;41.816;12.448;2023-07-13T04:12:40;5.55;;;2.28;;
69253;SDS011;56364;41.816;12.448;2023-07-13T04:15:06;5.40;;;2.38;;
69253;SDS011;56364;41.816;12.448;2023-07-13T04:17:33;4.55;;;2.13;;
69253;SDS011;56364;41.816;12.448;2023-07-13T04:20:01;5.47;;;2.42;;
69253;SDS011;56364;41.816;12.448;2023-07-13T04:22:27;5.63;;;2.55;;
69253;SDS011;56364;41.816;12.448;2023-07-13T04:24:53;7.60;;;1.88;;
69253;SDS011;56364;41.816;12.448;2023-07-13T04:32:42;10.38;;;2.13;;
69253;SDS011;56364;41.816;12.448;2023-07-13T04:35:08;4.65;;;1.92;;
69253;SDS011;56364;41.816;12.448;2023-07-13T04:37:34;5.32;;;2.30;;
69253;SDS011;56364;41.816;12.448;2023-07-13T04:40:02;5.07;;;2.03;;
69253;SDS011;56364;41.816;12.448;2023-07-13T04:42:29;6.55;;;1.77;;
69253;SDS011;56364;41.816;12.448;2023-07-13T04:44:56;5.68;;;2.22;;
69253;SDS011;56364;41.816;12.448;2023-07-13T04:47:22;8.98;;;2.33;;
69253;SDS011;56364;41.816;12.448;2023-07-13T04:49:48;10.63;;;2.13;;
69253;SDS011;56364;41.816;12.448;2023-07-13T04:52:14;5.15;;;2.30;;
69253;SDS011;56364;41.816;12.448;2023-07-13T04:54:40;6.15;;;2.30;;
69253;SDS011;56364;41.816;12.448;2023-07-13T04:57:07;6.82;;;1.88;;
69253;SDS011;56364;41.816;12.448;2023-07-13T04:59:34;8.88;;;2.17;;
69253;SDS011;56364;41.816;12.448;2023-07-13T05:02:00;4.00;;;2.00;;
69253;SDS011;56364;41.816;12.448;2023-07-13T05:04:26;5.03;;;2.30;;
69253;SDS011;56364;41.816;12.448;2023-07-13T05:06:56;8.13;;;2.58;;
69253;SDS011;56364;41.816;12.448;2023-07-13T05:09:22;18.02;;;3.15;;
69253;SDS011;56364;41.816;12.448;2023-07-13T05:11:48;9.88;;;2.90;;
69253;SDS011;56364;41.816;12.448;2023-07-13T05:14:14;5.38;;;2.17;;
69253;SDS011;56364;41.816;12.448;2023-07-13T05:16:41;6.32;;;2.60;;
69253;SDS011;56364;41.816;12.448;2023-07-13T05:19:08;7.15;;;2.63;;
69253;SDS011;56364;41.816;12.448;2023-07-13T05:21:34;20.92;;;3.53;;
69253;SDS011;56364;41.816;12.448;2023-07-13T05:24:00;10.55;;;2.20;;
69253;SDS011;56364;41.816;12.448;2023-07-13T05:26:26;8.38;;;2.25;;
69253;SDS011;56364;41.816;12.448;2023-07-13T05:31:26;16.65;;;3.10;;
69253;SDS011;56364;41.816;12.448;2023-07-13T05:33:53;9.70;;;2.28;;
69253;SDS011;56364;41.816;12.448;2023-07-13T05:36:19;5.03;;;2.40;;
69253;SDS011;56364;41.816;12.448;2023-07-13T05:38:45;11.00;;;2.80;;
69253;SDS011;56364;41.816;12.448;2023-07-13T05:41:11;4.40;;;2.45;;
69253;SDS011;56364;41.816;12.448;2023-07-13T05:43:37;7.00;;;2.28;;
69253;SDS011;56364;41.816;12.448;2023-07-13T05:46:03;12.10;;;2.70;;
69253;SDS011;56364;41.816;12.448;2023-07-13T05:51:05;11.10;;;2.72;;
69253;SDS011;56364;41.816;12.448;2023-07-13T05:53:31;12.20;;;2.63;;
69253;SDS011;56364;41.816;12.448;2023-07-13T05:55:57;10.13;;;2.80;;
69253;SDS011;56364;41.816;12.448;2023-07-13T05:58:23;7.22;;;2.90;;
69253;SDS011;56364;41.816;12.448;2023-07-13T06:00:57;6.97;;;3.38;;
69253;SDS011;56364;41.816;12.448;2023-07-13T06:03:24;10.18;;;2.65;;
69253;SDS011;56364;41.816;12.448;2023-07-13T06:08:22;8.48;;;2.88;;
69253;SDS011;56364;41.816;12.448;2023-07-13T06:10:51;11.85;;;2.70;;
69253;SDS011;56364;41.816;12.448;2023-07-13T06:13:18;9.82;;;4.07;;
69253;SDS011;56364;41.816;12.448;2023-07-13T06:18:31;5.50;;;3.10;;
69253;SDS011;56364;41.816;12.448;2023-07-13T06:20:57;14.00;;;5.03;;
69253;SDS011;56364;41.816;12.448;2023-07-13T06:23:23;6.00;;;2.90;;
69253;SDS011;56364;41.816;12.448;2023-07-13T06:25:50;11.68;;;2.70;;
69253;SDS011;56364;41.816;12.448;2023-07-13T06:28:16;8.02;;;2.60;;
69253;SDS011;56364;41.816;12.448;2023-07-13T06:30:45;11.25;;;3.10;;
69253;SDS011;56364;41.816;12.448;2023-07-13T06:33:11;8.25;;;2.65;;
69253;SDS011;56364;41.816;12.448;2023-07-13T06:35:38;9.30;;;2.97;;
69253;SDS011;56364;41.816;12.448;2023-07-13T06:38:05;6.30;;;2.45;;
69253;SDS011;56364;41.816;12.448;2023-07-13T06:40:31;6.97;;;2.92;;
69253;SDS011;56364;41.816;12.448;2023-07-13T06:42:57;8.10;;;2.75;;
69253;SDS011;56364;41.816;12.448;2023-07-13T06:45:23;9.15;;;2.55;;
69253;SDS011;56364;41.816;12.448;2023-07-13T06:47:49;9.32;;;2.80;;
69253;SDS011;56364;41.816;12.448;2023-07-13T06:50:15;8.80;;;2.50;;
69253;SDS011;56364;41.816;12.448;2023-07-13T06:52:44;7.78;;;2.60;;
69253;SDS011;56364;41.816;12.448;2023-07-13T06:55:10;14.68;;;3.75;;
69253;SDS011;56364;41.816;12.448;2023-07-13T06:57:39;7.72;;;2.80;;
69253;SDS011;56364;41.816;12.448;2023-07-13T07:00:10;10.07;;;2.63;;
69253;SDS011;56364;41.816;12.448;2023-07-13T07:05:04;5.93;;;2.90;;
69253;SDS011;56364;41.816;12.448;2023-07-13T07:20:30;9.02;;;2.67;;
69253;SDS011;56364;41.816;12.448;2023-07-13T07:25:35;4.20;;;2.67;;
69253;SDS011;56364;41.816;12.448;2023-07-13T07:28:07;6.15;;;2.60;;
69253;SDS011;56364;41.816;12.448;2023-07-13T07:30:33;9.88;;;2.67;;
69253;SDS011;56364;41.816;12.448;2023-07-13T07:32:59;6.82;;;2.80;;
69253;SDS011;56364;41.816;12.448;2023-07-13T07:35:26;10.95;;;2.92;;
69253;SDS011;56364;41.816;12.448;2023-07-13T07:37:53;5.50;;;2.30;;
69253;SDS011;56364;41.816;12.448;2023-07-13T07:40:19;5.50;;;2.67;;
69253;SDS011;56364;41.816;12.448;2023-07-13T07:42:45;9.68;;;2.70;;
69253;SDS011;56364;41.816;12.448;2023-07-13T07:45:11;5.53;;;2.80;;
69253;SDS011;56364;41.816;12.448;2023-07-13T07:47:57;5.00;;;3.13;;
69253;SDS011;56364;41.816;12.448;2023-07-13T07:50:28;5.70;;;2.80;;
69253;SDS011;56364;41.816;12.448;2023-07-13T07:52:57;8.75;;;3.10;;
69253;SDS011;56364;41.816;12.448;2023-07-13T07:55:27;5.82;;;2.55;;
69253;SDS011;56364;41.816;12.448;2023-07-13T07:57:53;9.32;;;2.92;;
69253;SDS011;56364;41.816;12.448;2023-07-13T08:00:20;10.27;;;3.10;;
69253;SDS011;56364;41.816;12.448;2023-07-13T08:02:46;6.25;;;2.67;;
69253;SDS011;56364;41.816;12.448;2023-07-13T08:18:11;5.75;;;2.58;;
69253;SDS011;56364;41.816;12.448;2023-07-13T08:26:02;5.63;;;2.58;;
69253;SDS011;56364;41.816;12.448;2023-07-13T08:28:29;6.00;;;3.00;;
69253;SDS011;56364;41.816;12.448;2023-07-13T08:31:00;5.55;;;2.55;;
69253;SDS011;56364;41.816;12.448;2023-07-13T08:33:26;8.65;;;3.42;;
69253;SDS011;56364;41.816;12.448;2023-07-13T08:35:52;12.77;;;2.83;;
69253;SDS011;56364;41.816;12.448;2023-07-13T08:38:18;10.27;;;2.30;;
69253;SDS011;56364;41.816;12.448;2023-07-13T08:40:48;9.55;;;3.40;;
69253;SDS011;56364;41.816;12.448;2023-07-13T08:43:17;8.20;;;3.00;;
69253;SDS011;56364;41.816;12.448;2023-07-13T08:46:10;6.55;;;2.97;;
69253;SDS011;56364;41.816;12.448;2023-07-13T08:48:55;12.82;;;3.25;;
69253;SDS011;56364;41.816;12.448;2023-07-13T08:51:31;3.80;;;2.22;;
69253;SDS011;56364;41.816;12.448;2023-07-13T08:54:01;9.73;;;2.70;;
69253;SDS011;56364;41.816;12.448;2023-07-13T08:56:37;6.75;;;2.67;;
69253;SDS011;56364;41.816;12.448;2023-07-13T08:59:13;7.45;;;2.80;;
69253;SDS011;56364;41.816;12.448;2023-07-13T09:04:29;3.63;;;2.58;;
69253;SDS011;56364;41.816;12.448;2023-07-13T09:09:40;7.78;;;3.22;;
69253;SDS011;56364;41.816;12.448;2023-07-13T09:12:17;10.00;;;3.33;;
69253;SDS011;56364;41.816;12.448;2023-07-13T09:17:18;5.60;;;2.60;;
69253;SDS011;56364;41.816;12.448;2023-07-13T09:19:52;9.02;;;2.70;;
69253;SDS011;56364;41.816;12.448;2023-07-13T09:38:13;6.45;;;2.25;;
69253;SDS011;56364;41.816;12.448;2023-07-13T09:40:43;14.73;;;3.40;;
69253;SDS011;56364;41.816;12.448;2023-07-13T09:43:26;8.32;;;3.42;;
69253;SDS011;56364;41.816;12.448;2023-07-13T09:46:21;5.63;;;2.72;;
69253;SDS011;56364;41.816;12.448;2023-07-13T09:48:47;8.25;;;2.25;;
69253;SDS011;56364;41.816;12.448;2023-07-13T09:51:14;9.02;;;2.63;;
69253;SDS011;56364;41.816;12.448;2023-07-13T09:53:42;6.10;;;2.50;;
69253;SDS011;56364;41.816;12.448;2023-07-13T09:56:21;6.07;;;2.70;;
69253;SDS011;56364;41.816;12.448;2023-07-13T09:58:48;12.10;;;2.70;;
69253;SDS011;56364;41.816;12.448;2023-07-13T10:01:14;7.47;;;2.72;;
69253;SDS011;56364;41.816;12.448;2023-07-13T10:03:51;9.68;;;3.17;;
69253;SDS011;56364;41.816;12.448;2023-07-13T10:06:40;10.18;;;3.67;;
69253;SDS011;56364;41.816;12.448;2023-07-13T10:09:08;8.43;;;2.97;;
69253;SDS011;56364;41.816;12.448;2023-07-13T10:11:35;6.35;;;2.83;;
69253;SDS011;56364;41.816;12.448;2023-07-13T10:14:23;9.60;;;2.80;;
69253;SDS011;56364;41.816;12.448;2023-07-13T10:16:52;6.50;;;2.80;;
69253;SDS011;56364;41.816;12.448;2023-07-13T10:21:50;5.35;;;2.45;;
69253;SDS011;56364;41.816;12.448;2023-07-13T10:24:36;9.38;;;2.80;;
69253;SDS011;56364;41.816;12.448;2023-07-13T10:27:17;7.25;;;2.75;;
69253;SDS011;56364;41.816;12.448;2023-07-13T10:32:57;7.88;;;3.13;;
69253;SDS011;56364;41.816;12.448;2023-07-13T10:48:24;11.27;;;3.30;;
69253;SDS011;56364;41.816;12.448;2023-07-13T10:53:42;7.65;;;3.30;;
69253;SDS011;56364;41.816;12.448;2023-07-13T10:56:28;6.63;;;3.63;;
69253;SDS011;56364;41.816;12.448;2023-07-13T10:59:28;9.80;;;3.20;;
69253;SDS011;56364;41.816;12.448;2023-07-13T11:02:05;12.25;;;3.40;;
69253;SDS011;56364;41.816;12.448;2023-07-13T11:04:45;14.27;;;3.13;;
69253;SDS011;56364;41.816;12.448;2023-07-13T11:07:24;6.90;;;2.78;;
69253;SDS011;56364;41.816;12.448;2023-07-13T11:09:55;5.53;;;2.83;;
69253;SDS011;56364;41.816;12.448;2023-07-13T11:45:56;12.73;;;3.58;;
69253;SDS011;56364;41.816;12.448;2023-07-13T11:48:24;12.95;;;3.50;;
69253;SDS011;56364;41.816;12.448;2023-07-13T12:14:54;12.25;;;2.95;;
69253;SDS011;56364;41.816;12.448;2023-07-13T12:17:25;7.60;;;3.65;;
69253;SDS011;56364;41.816;12.448;2023-07-13T12:19:59;5.38;;;3.05;;
69253;SDS011;56364;41.816;12.448;2023-07-13T12:22:40;4.65;;;3.08;;
69253;SDS011;56364;41.816;12.448;2023-07-13T12:28:45;11.30;;;3.38;;
69253;SDS011;56364;41.816;12.448;2023-07-13T12:34:08;9.63;;;3.22;;
69253;SDS011;56364;41.816;12.448;2023-07-13T12:36:37;14.35;;;3.60;;
69253;SDS011;56364;41.816;12.448;2023-07-13T12:39:06;5.78;;;2.80;;
69253;SDS011;56364;41.816;12.448;2023-07-13T12:41:37;5.07;;;2.88;;
69253;SDS011;56364;41.816;12.448;2023-07-13T12:44:10;8.32;;;3.45;;
69253;SDS011;56364;41.816;12.448;2023-07-13T12:46:47;10.20;;;3.00;;
69253;SDS011;56364;41.816;12.448;2023-07-13T12:49:16;13.82;;;3.50;;
69253;SDS011;56364;41.816;12.448;2023-07-13T12:51:45;10.27;;;3.13;;
69253;SDS011;56364;41.816;12.448;2023-07-13T12:54:19;9.80;;;2.90;;
69253;SDS011;56364;41.816;12.448;2023-07-13T12:56:49;8.70;;;3.28;;
69253;SDS011;56364;41.816;12.448;2023-07-13T12:59:18;12.30;;;3.60;;
69253;SDS011;56364;41.816;12.448;2023-07-13T13:01:45;10.85;;;2.78;;
69253;SDS011;56364;41.816;12.448;2023-07-13T13:04:11;8.88;;;3.38;;
69253;SDS011;56364;41.816;12.448;2023-07-13T13:06:38;9.57;;;2.70;;
69253;SDS011;56364;41.816;12.448;2023-07-13T13:09:11;10.23;;;3.05;;
69253;SDS011;56364;41.816;12.448;2023-07-13T13:14:16;12.60;;;3.75;;
69253;SDS011;56364;41.816;12.448;2023-07-13T13:16:51;9.20;;;3.05;;
69253;SDS011;56364;41.816;12.448;2023-07-13T13:19:21;14.32;;;3.72;;
69253;SDS011;56364;41.816;12.448;2023-07-13T13:21:48;8.95;;;2.97;;
69253;SDS011;56364;41.816;12.448;2023-07-13T13:24:19;8.27;;;3.58;;
69253;SDS011;56364;41.816;12.448;2023-07-13T13:26:46;6.85;;;2.83;;
69253;SDS011;56364;41.816;12.448;2023-07-13T13:29:13;7.72;;;3.22;;
69253;SDS011;56364;41.816;12.448;2023-07-13T13:31:39;6.53;;;3.40;;
69253;SDS011;56364;41.816;12.448;2023-07-13T13:41:55;11.40;;;3.30;;
69253;SDS011;56364;41.816;12.448;2023-07-13T13:44:33;9.05;;;3.25;;
69253;SDS011;56364;41.816;12.448;2023-07-13T13:50:22;6.90;;;3.50;;
69253;SDS011;56364;41.816;12.448;2023-07-13T13:52:52;11.23;;;3.45;;
69253;SDS011;56364;41.816;12.448;2023-07-13T13:55:19;14.30;;;2.90;;
69253;SDS011;56364;41.816;12.448;2023-07-13T13:57:48;9.52;;;3.00;;
69253;SDS011;56364;41.816;12.448;2023-07-13T14:00:15;10.90;;;3.92;;
69253;SDS011;56364;41.816;12.448;2023-07-13T14:02:44;10.80;;;3.38;;
69253;SDS011;56364;41.816;12.448;2023-07-13T14:05:18;6.13;;;3.45;;
69253;SDS011;56364;41.816;12.448;2023-07-13T14:07:56;9.93;;;3.45;;
69253;SDS011;56364;41.816;12.448;2023-07-13T14:54:45;11.00;;;3.10;;
69253;SDS011;56364;41.816;12.448;2023-07-13T16:10:44;9.18;;;2.92;;
69253;SDS011;56364;41.816;12.448;2023-07-13T16:13:23;12.27;;;3.78;;
69253;SDS011;56364;41.816;12.448;2023-07-13T16:15:50;14.88;;;3.38;;
69253;SDS011;56364;41.816;12.448;2023-07-13T16:18:17;6.85;;;3.70;;
69253;SDS011;56364;41.816;12.448;2023-07-13T16:20:44;10.93;;;3.92;;
69253;SDS011;56364;41.816;12.448;2023-07-13T16:23:11;6.70;;;3.08;;
69253;SDS011;56364;41.816;12.448;2023-07-13T16:25:41;9.65;;;3.22;;
69253;SDS011;56364;41.816;12.448;2023-07-13T16:30:47;9.25;;;3.30;;
69253;SDS011;56364;41.816;12.448;2023-07-13T16:33:26;9.32;;;2.95;;
69253;SDS011;56364;41.816;12.448;2023-07-13T16:35:55;8.45;;;3.17;;
69253;SDS011;56364;41.816;12.448;2023-07-13T16:38:22;7.82;;;3.25;;
69253;SDS011;56364;41.816;12.448;2023-07-13T16:40:49;8.52;;;2.65;;
69253;SDS011;56364;41.816;12.448;2023-07-13T16:43:17;8.82;;;3.58;;
69253;SDS011;56364;41.816;12.448;2023-07-13T16:45:46;8.63;;;3.08;;
69253;SDS011;56364;41.816;12.448;2023-07-13T16:48:19;7.65;;;2.42;;
69253;SDS011;56364;41.816;12.448;2023-07-13T16:50:51;11.43;;;3.38;;
69253;SDS011;56364;41.816;12.448;2023-07-13T16:53:22;15.57;;;3.42;;
69253;SDS011;56364;41.816;12.448;2023-07-13T16:55:51;8.80;;;3.05;;
69253;SDS011;56364;41.816;12.448;2023-07-13T17:00:50;9.13;;;3.42;;
69253;SDS011;56364;41.816;12.448;2023-07-13T17:03:16;12.35;;;3.10;;
69253;SDS011;56364;41.816;12.448;2023-07-13T17:05:44;9.00;;;3.08;;
69253;SDS011;56364;41.816;12.448;2023-07-13T17:08:18;12.95;;;3.08;;
69253;SDS011;56364;41.816;12.448;2023-07-13T17:11:19;9.75;;;2.70;;
69253;SDS011;56364;41.816;12.448;2023-07-13T17:13:45;9.63;;;3.42;;
69253;SDS011;56364;41.816;12.448;2023-07-13T17:16:24;9.00;;;3.00;;
69253;SDS011;56364;41.816;12.448;2023-07-13T17:18:52;9.80;;;3.28;;
69253;SDS011;56364;41.816;12.448;2023-07-13T17:21:22;8.80;;;3.20;;
69253;SDS011;56364;41.816;12.448;2023-07-13T17:23:53;10.07;;;2.95;;
69253;SDS011;56364;41.816;12.448;2023-07-13T17:31:46;19.88;;;7.65;;
69253;SDS011;56364;41.816;12.448;2023-07-13T17:52:36;24.42;;;13.00;;
69253;SDS011;56364;41.816;12.448;2023-07-13T17:58:17;9.50;;;3.25;;
69253;SDS011;56364;41.816;12.448;2023-07-13T18:00:57;11.15;;;3.35;;
69253;SDS011;56364;41.816;12.448;2023-07-13T18:03:27;11.90;;;3.97;;
69253;SDS011;56364;41.816;12.448;2023-07-13T18:06:03;36.65;;;20.23;;
69253;SDS011;56364;41.816;12.448;2023-07-13T18:08:30;44.70;;;22.60;;
69253;SDS011;56364;41.816;12.448;2023-07-13T18:10:59;34.72;;;11.25;;
69253;SDS011;56364;41.816;12.448;2023-07-13T18:13:48;19.25;;;6.35;;
69253;SDS011;56364;41.816;12.448;2023-07-13T18:16:15;19.40;;;7.13;;
69253;SDS011;56364;41.816;12.448;2023-07-13T18:18:57;14.10;;;4.40;;
69253;SDS011;56364;41.816;12.448;2023-07-13T18:21:24;19.38;;;7.32;;
69253;SDS011;56364;41.816;12.448;2023-07-13T18:23:51;23.92;;;7.18;;
69253;SDS011;56364;41.816;12.448;2023-07-13T18:26:19;17.35;;;5.60;;
69253;SDS011;56364;41.816;12.448;2023-07-13T18:28:46;14.35;;;4.43;;
69253;SDS011;56364;41.816;12.448;2023-07-13T18:31:17;14.20;;;5.20;;
69253;SDS011;56364;41.816;12.448;2023-07-13T18:39:24;8.75;;;3.05;;
69253;SDS011;56364;41.816;12.448;2023-07-13T18:41:59;20.52;;;9.10;;
69253;SDS011;56364;41.816;12.448;2023-07-13T18:44:25;12.27;;;3.53;;
69253;SDS011;56364;41.816;12.448;2023-07-13T18:46:54;13.25;;;5.03;;
69253;SDS011;56364;41.816;12.448;2023-07-13T18:57:11;10.88;;;5.40;;
69253;SDS011;56364;41.816;12.448;2023-07-13T18:59:39;23.02;;;8.55;;
69253;SDS011;56364;41.816;12.448;2023-07-13T19:02:12;21.88;;;9.40;;
69253;SDS011;56364;41.816;12.448;2023-07-13T19:04:56;23.30;;;6.88;;
69253;SDS011;56364;41.816;12.448;2023-07-13T19:07:30;22.38;;;6.20;;
69253;SDS011;56364;41.816;12.448;2023-07-13T19:09:59;19.67;;;6.45;;
69253;SDS011;56364;41.816;12.448;2023-07-13T19:20:18;25.70;;;9.32;;
69253;SDS011;56364;41.816;12.448;2023-07-13T19:31:02;8.73;;;3.20;;
69253;SDS011;56364;41.816;12.448;2023-07-13T19:33:44;15.60;;;3.85;;
69253;SDS011;56364;41.816;12.448;2023-07-13T19:36:13;7.95;;;3.55;;
69253;SDS011;56364;41.816;12.448;2023-07-13T19:42:15;12.77;;;4.07;;
69253;SDS011;56364;41.816;12.448;2023-07-13T19:53:08;11.63;;;4.40;;
69253;SDS011;56364;41.816;12.448;2023-07-13T19:55:39;17.13;;;4.80;;
69253;SDS011;56364;41.816;12.448;2023-07-13T19:58:07;14.15;;;4.60;;
69253;SDS011;56364;41.816;12.448;2023-07-13T20:00:35;15.18;;;5.80;;
69253;SDS011;56364;41.816;12.448;2023-07-13T20:03:09;16.50;;;5.03;;
69253;SDS011;56364;41.816;12.448;2023-07-13T20:05:36;21.70;;;6.55;;
69253;SDS011;56364;41.816;12.448;2023-07-13T20:08:02;20.55;;;8.13;;
69253;SDS011;56364;41.816;12.448;2023-07-13T20:10:32;21.25;;;5.13;;
69253;SDS011;56364;41.816;12.448;2023-07-13T20:13:31;15.57;;;5.00;;
69253;SDS011;56364;41.816;12.448;2023-07-13T20:15:59;15.27;;;6.60;;
69253;SDS011;56364;41.816;12.448;2023-07-13T20:18:27;13.90;;;4.72;;
69253;SDS011;56364;41.816;12.448;2023-07-13T20:20:53;11.23;;;3.88;;
69253;SDS011;56364;41.816;12.448;2023-07-13T20:23:19;24.05;;;9.38;;
69253;SDS011;56364;41.816;12.448;2023-07-13T20:25:48;15.30;;;6.63;;
69253;SDS011;56364;41.816;12.448;2023-07-13T20:28:15;16.88;;;5.95;;
69253;SDS011;56364;41.816;12.448;2023-07-13T20:33:19;10.70;;;3.95;;
69253;SDS011;56364;41.816;12.448;2023-07-13T20:35:46;10.02;;;3.63;;
69253;SDS011;56364;41.816;12.448;2023-07-13T20:38:14;21.45;;;8.98;;
69253;SDS011;56364;41.816;12.448;2023-07-13T20:40:44;15.55;;;7.15;;
69253;SDS011;56364;41.816;12.448;2023-07-13T20:43:11;62.55;;;25.23;;
69253;SDS011;56364;41.816;12.448;2023-07-13T20:45:40;23.92;;;7.95;;
69253;SDS011;56364;41.816;12.448;2023-07-13T20:50:41;31.80;;;12.27;;
69253;SDS011;56364;41.816;12.448;2023-07-13T20:56:04;27.63;;;12.57;;
69253;SDS011;56364;41.816;12.448;2023-07-13T21:32:54;11.50;;;3.53;;
69253;SDS011;56364;41.816;12.448;2023-07-13T22:10:18;7.40;;;3.58;;
69253;SDS011;56364;41.816;12.448;2023-07-13T22:13:13;9.13;;;3.55;;
69253;SDS011;56364;41.816;12.448;2023-07-13T22:15:51;16.00;;;4.05;;
69253;SDS011;56364;41.816;12.448;2023-07-13T22:20:51;9.45;;;3.42;;
69253;SDS011;56364;41.816;12.448;2023-07-13T22:23:21;7.82;;;3.20;;
69253;SDS011;56364;41.816;12.448;2023-07-13T22:26:17;9.00;;;3.55;;
69253;SDS011;56364;41.816;12.448;2023-07-13T22:36:31;11.07;;;3.90;;
69253;SDS011;56364;41.816;12.448;2023-07-13T22:38:57;8.23;;;4.00;;
69253;SDS011;56364;41.816;12.448;2023-07-13T22:41:23;8.98;;;3.53;;
69253;SDS011;56364;41.816;12.448;2023-07-13T22:43:51;7.43;;;3.47;;
69253;SDS011;56364;41.816;12.448;2023-07-13T22:46:24;9.43;;;3.67;;
69253;SDS011;56364;41.816;12.448;2023-07-13T22:49:20;10.77;;;3.63;;
69253;SDS011;56364;41.816;12.448;2023-07-13T22:51:49;9.25;;;3.67;;
69253;SDS011;56364;41.816;12.448;2023-07-13T22:54:15;6.18;;;3.08;;
69253;SDS011;56364;41.816;12.448;2023-07-13T22:56:42;8.90;;;3.92;;
69253;SDS011;56364;41.816;12.448;2023-07-13T22:59:08;10.77;;;3.45;;
69253;SDS011;56364;41.816;12.448;2023-07-13T23:01:34;11.23;;;3.53;;